createdAt,value
2023-02-11T00:02:10.947Z,29.13
2023-02-11T00:07:12.478Z,26.70
2023-02-11T00:12:13.969Z,35.38
2023-02-11T00:17:15.479Z,28.38
2023-02-11T00:22:17.025Z,29.10
2023-02-11T00:27:18.516Z,29.05
2023-02-11T00:32:20.075Z,28.05
2023-02-11T00:37:21.813Z,27.63
2023-02-11T00:42:23.340Z,26.42
2023-02-11T00:47:24.915Z,30.00
2023-02-11T00:52:26.461Z,29.65
2023-02-11T00:57:28.016Z,25.85
2023-02-11T01:02:29.528Z,27.50
2023-02-11T01:07:31.046Z,28.98
2023-02-11T01:12:35.938Z,32.28
2023-02-11T01:17:37.896Z,28.48
2023-02-11T01:22:39.635Z,33.08
2023-02-11T01:27:41.515Z,30.25
2023-02-11T01:32:43.036Z,34.72
2023-02-11T01:37:44.509Z,36.45
2023-02-11T01:42:48.828Z,34.47
2023-02-11T01:47:51.524Z,36.50
2023-02-11T01:52:53.064Z,38.17
2023-02-11T01:58:00.036Z,36.55
2023-02-11T02:03:31.801Z,32.97
2023-02-11T02:08:55.002Z,33.40
2023-02-11T02:13:56.566Z,32.08
2023-02-11T02:19:22.271Z,39.47
2023-02-11T02:24:48.367Z,38.45
2023-02-11T02:30:04.016Z,42.92
2023-02-11T02:35:37.850Z,37.53
2023-02-11T02:40:50.939Z,40.90
2023-02-11T02:45:52.675Z,40.67
2023-02-11T02:51:29.775Z,42.38
2023-02-11T02:56:49.983Z,41.03
2023-02-11T03:02:05.148Z,48.92
2023-02-11T03:07:26.029Z,44.95
2023-02-11T03:12:31.812Z,47.17
2023-02-11T03:17:36.041Z,45.65
2023-02-11T03:22:45.525Z,43.72
2023-02-11T03:27:54.256Z,46.40
2023-02-11T03:33:08.585Z,48.78
2023-02-11T03:38:19.903Z,52.30
2023-02-11T03:43:26.511Z,54.40
2023-02-11T03:48:38.767Z,48.60
2023-02-11T03:53:43.356Z,52.67
2023-02-11T03:58:46.070Z,48.08
2023-02-11T04:03:47.598Z,53.28
2023-02-11T04:08:49.134Z,52.95
2023-02-11T04:13:50.663Z,55.53
2023-02-11T04:18:52.207Z,55.72
2023-02-11T04:23:53.769Z,60.47
2023-02-11T04:28:55.296Z,62.50
2023-02-11T04:33:56.901Z,64.05
2023-02-11T04:38:58.361Z,55.03
2023-02-11T04:43:59.905Z,56.42
2023-02-11T04:49:01.399Z,59.20
2023-02-11T04:54:02.973Z,53.80
2023-02-11T04:59:05.169Z,56.55
2023-02-11T05:04:06.692Z,63.90
2023-02-11T05:09:08.230Z,61.47
2023-02-11T05:14:09.778Z,58.17
2023-02-11T05:19:11.533Z,58.20
2023-02-11T05:24:13.072Z,59.50
2023-02-11T05:29:14.574Z,54.28
2023-02-11T05:34:16.089Z,58.95
2023-02-11T05:39:17.617Z,61.95
2023-02-11T05:44:19.172Z,54.58
2023-02-11T05:49:20.668Z,59.92
2023-02-11T05:54:22.345Z,57.80
2023-02-11T05:59:23.819Z,55.20
2023-02-11T06:04:25.308Z,47.63
2023-02-11T06:09:27.132Z,51.88
2023-02-11T06:14:28.769Z,61.58
2023-02-11T06:19:31.115Z,56.85
2023-02-11T06:24:54.968Z,57.03
2023-02-11T06:29:54.309Z,63.78
2023-02-11T06:34:55.797Z,63.72
2023-02-11T06:39:57.328Z,71.35
2023-02-11T06:44:58.934Z,59.28
2023-02-11T06:50:00.685Z,62.40
2023-02-11T06:55:02.615Z,57.30
2023-02-11T07:00:05.833Z,61.40
2023-02-11T07:05:08.200Z,62.30
2023-02-11T07:10:09.820Z,61.65
2023-02-11T07:15:11.339Z,64.05
2023-02-11T07:20:14.707Z,62.08
2023-02-11T07:25:16.301Z,63.55
2023-02-11T07:30:17.901Z,60.17
2023-02-11T07:35:19.486Z,67.25
2023-02-11T07:40:21.043Z,68.65
2023-02-11T07:45:22.544Z,63.42
2023-02-11T07:50:24.038Z,68.05
2023-02-11T07:55:25.567Z,70.40
2023-02-11T08:00:27.219Z,60.35
2023-02-11T08:05:28.891Z,65.90
2023-02-11T08:10:30.393Z,65.20
2023-02-11T08:15:31.877Z,63.88
2023-02-11T08:20:33.372Z,55.38
2023-02-11T08:25:35.034Z,64.65
2023-02-11T08:30:36.623Z,70.10
2023-02-11T08:35:39.837Z,54.80
2023-02-11T08:40:41.325Z,56.25
2023-02-11T08:45:42.914Z,53.03
2023-02-11T08:50:44.420Z,52.03
2023-02-11T08:55:50.834Z,52.33
2023-02-11T09:00:52.860Z,55.33
2023-02-11T09:05:54.884Z,47.30
2023-02-11T09:10:57.372Z,34.75
2023-02-11T09:15:59.772Z,43.25
2023-02-11T09:21:09.307Z,40.60
2023-02-11T09:26:15.056Z,32.85
2023-02-11T09:31:19.153Z,44.55
2023-02-11T09:36:24.824Z,32.15
2023-02-11T09:41:37.328Z,25.27
2023-02-11T09:46:42.400Z,31.42
2023-02-11T09:51:54.782Z,24.25
2023-02-11T09:56:56.728Z,24.17
2023-02-11T10:02:13.137Z,27.00
2023-02-11T10:07:14.621Z,20.95
2023-02-11T10:12:28.189Z,19.58
2023-02-11T10:18:17.197Z,19.35
2023-02-11T10:23:33.861Z,28.08
2023-02-11T10:28:37.006Z,19.63
2023-02-11T10:33:41.189Z,15.00
2023-02-11T10:38:42.896Z,18.27
2023-02-11T10:43:44.614Z,19.52
2023-02-11T10:48:55.282Z,20.25
2023-02-11T10:54:07.902Z,21.13
2023-02-11T10:59:31.334Z,15.52
2023-02-11T11:04:35.395Z,18.77
2023-02-11T11:10:09.305Z,15.25
2023-02-11T11:15:10.767Z,17.42
2023-02-11T11:20:27.597Z,17.23
2023-02-11T11:25:30.493Z,14.65
2023-02-11T11:30:39.173Z,11.60
2023-02-11T11:35:41.004Z,17.38
2023-02-11T11:40:42.515Z,14.43
2023-02-11T11:45:56.257Z,16.05
2023-02-11T11:51:01.996Z,16.20
2023-02-11T11:56:09.042Z,10.70
2023-02-11T12:01:52.809Z,16.55
2023-02-11T12:07:24.744Z,16.55
2023-02-11T12:12:27.306Z,12.93
2023-02-11T12:17:52.311Z,14.10
2023-02-11T12:23:15.599Z,12.85
2023-02-11T12:28:51.139Z,15.93
2023-02-11T12:34:22.349Z,13.45
2023-02-11T12:39:49.837Z,14.52
2023-02-11T12:44:51.740Z,15.90
2023-02-11T12:50:22.457Z,21.40
2023-02-11T12:55:26.764Z,14.52
2023-02-11T13:00:41.466Z,17.35
2023-02-11T13:05:51.688Z,14.57
2023-02-11T13:11:02.115Z,13.15
2023-02-11T13:16:17.286Z,20.75
2023-02-11T13:21:30.320Z,13.63
2023-02-11T13:27:05.603Z,14.50
2023-02-11T13:32:07.334Z,14.20
2023-02-11T13:37:24.072Z,14.50
2023-02-11T13:42:25.685Z,14.10
2023-02-11T13:47:37.212Z,15.18
2023-02-11T13:52:39.353Z,10.35
2023-02-11T13:57:42.177Z,20.45
2023-02-11T14:03:02.216Z,21.35
2023-02-11T14:08:28.024Z,12.32
2023-02-11T14:13:31.964Z,13.38
2023-02-11T14:18:58.186Z,14.55
2023-02-11T14:24:02.470Z,13.10
2023-02-11T14:29:09.491Z,13.10
2023-02-11T14:34:22.889Z,13.35
2023-02-11T14:39:45.176Z,14.05
2023-02-11T14:44:50.278Z,19.75
2023-02-11T14:49:51.971Z,15.25
2023-02-11T14:55:06.268Z,17.35
2023-02-11T15:00:22.091Z,13.88
2023-02-11T15:05:29.039Z,13.00
2023-02-11T15:10:35.412Z,16.57
2023-02-11T15:15:40.757Z,11.23
2023-02-11T15:20:42.301Z,21.42
2023-02-11T15:25:51.162Z,21.85
2023-02-11T15:31:01.626Z,19.80
2023-02-11T15:36:03.859Z,21.08
2023-02-11T15:41:07.465Z,16.63
2023-02-11T15:46:10.598Z,16.90
2023-02-11T15:51:21.835Z,18.80
2023-02-11T15:56:25.437Z,19.60
2023-02-11T16:01:34.812Z,17.23
2023-02-11T16:06:41.358Z,16.52
2023-02-11T16:11:48.835Z,16.83
2023-02-11T16:16:54.665Z,20.15
2023-02-11T16:21:58.333Z,24.10
2023-02-11T16:27:02.331Z,12.07
2023-02-11T16:32:22.590Z,16.25
2023-02-11T16:37:25.186Z,18.40
2023-02-11T16:42:26.869Z,18.50
2023-02-11T16:47:28.927Z,23.00
2023-02-11T16:52:31.758Z,24.90
2023-02-11T16:57:33.258Z,19.20
2023-02-11T17:02:37.246Z,19.77
2023-02-11T17:07:38.761Z,16.13
2023-02-11T17:12:40.278Z,28.63
2023-02-11T17:17:41.942Z,23.00
2023-02-11T17:22:43.549Z,17.92
2023-02-11T17:27:45.508Z,12.40
2023-02-11T17:32:47.428Z,19.45
2023-02-11T17:37:49.004Z,29.83
2023-02-11T17:42:50.620Z,31.65
2023-02-11T17:47:52.297Z,15.63
2023-02-11T17:52:53.806Z,27.30
2023-02-11T17:57:55.446Z,31.13
2023-02-11T18:02:57.890Z,22.27
2023-02-11T18:07:59.441Z,18.45
2023-02-11T18:13:01.814Z,28.45
2023-02-11T18:18:03.810Z,39.97
2023-02-11T18:23:05.332Z,28.77
2023-02-11T18:28:08.134Z,73.53
2023-02-11T18:33:12.680Z,23.27
2023-02-11T18:38:14.217Z,22.67
2023-02-11T18:43:16.242Z,28.98
2023-02-11T18:48:18.307Z,15.88
2023-02-11T18:53:20.127Z,15.38
2023-02-11T18:58:21.697Z,15.27
2023-02-11T19:03:23.236Z,15.73
2023-02-11T19:08:24.768Z,18.40
2023-02-11T19:13:28.593Z,13.60
2023-02-11T19:18:30.079Z,19.27
2023-02-11T19:23:31.599Z,19.55
2023-02-11T19:28:35.207Z,13.27
2023-02-11T19:33:37.080Z,17.10
2023-02-11T19:38:38.603Z,16.77
2023-02-11T19:43:40.973Z,18.00
2023-02-11T19:48:42.533Z,19.52
2023-02-11T19:53:44.573Z,25.15
2023-02-11T19:58:46.171Z,19.15
2023-02-11T20:03:55.351Z,14.25
2023-02-11T20:09:06.395Z,65.80
2023-02-11T20:14:10.453Z,29.65
2023-02-11T20:19:16.826Z,25.27
2023-02-11T20:24:19.031Z,24.27
2023-02-11T20:29:20.812Z,24.27
2023-02-11T20:34:22.493Z,25.33
2023-02-11T20:39:25.594Z,25.02
2023-02-11T20:44:27.415Z,21.50
2023-02-11T20:49:29.046Z,26.70
2023-02-11T20:54:30.893Z,23.25
2023-02-11T20:59:32.770Z,20.83
2023-02-11T21:04:34.493Z,24.80
2023-02-11T21:09:36.043Z,26.95
2023-02-11T21:14:37.541Z,28.15
2023-02-11T21:19:39.255Z,24.60
2023-02-11T21:24:40.874Z,28.20
2023-02-11T21:29:53.377Z,28.15
2023-02-11T21:34:55.900Z,22.40
2023-02-11T21:39:57.465Z,24.17
2023-02-11T21:44:58.960Z,30.55
2023-02-11T21:50:00.515Z,22.48
2023-02-11T21:55:01.996Z,27.10
2023-02-11T22:00:05.935Z,34.70
2023-02-11T22:05:07.512Z,32.53
2023-02-11T22:10:09.775Z,34.25
2023-02-11T22:15:11.429Z,30.52
2023-02-11T22:20:12.963Z,28.30
2023-02-11T22:25:14.436Z,27.13
2023-02-11T22:30:16.538Z,29.23
2023-02-11T22:35:18.025Z,30.67
2023-02-11T22:40:19.611Z,25.25
2023-02-11T22:45:21.090Z,29.23
2023-02-11T22:50:22.624Z,37.78
2023-02-11T22:55:24.182Z,31.90
2023-02-11T23:00:26.415Z,29.85
2023-02-11T23:05:27.894Z,42.38
2023-02-11T23:10:29.427Z,46.17
2023-02-11T23:15:31.471Z,38.97
2023-02-11T23:20:37.587Z,36.95
2023-02-11T23:25:44.990Z,38.30
2023-02-11T23:30:46.540Z,40.25
2023-02-11T23:35:48.750Z,39.17
2023-02-11T23:40:50.251Z,38.15
2023-02-11T23:45:52.184Z,36.90
2023-02-11T23:50:53.871Z,37.60
2023-02-11T23:55:55.733Z,29.20
